createdAt,value
2018-12-26T00:00:58.033Z,4.72
2018-12-26T00:06:01.903Z,4.70
2018-12-26T00:11:05.683Z,4.69
2018-12-26T00:16:09.410Z,4.71
2018-12-26T00:21:13.171Z,4.71
2018-12-26T00:26:16.905Z,4.79
2018-12-26T00:31:20.650Z,4.70
2018-12-26T00:36:24.390Z,4.70
2018-12-26T00:41:28.136Z,4.72
2018-12-26T00:46:31.969Z,4.73
2018-12-26T00:51:35.753Z,4.70
2018-12-26T00:56:39.565Z,4.72
2018-12-26T01:01:43.310Z,4.77
2018-12-26T01:06:47.028Z,4.68
2018-12-26T01:11:50.793Z,4.72
2018-12-26T01:16:54.566Z,4.63
2018-12-26T01:21:58.314Z,4.69
2018-12-26T01:27:02.048Z,4.59
2018-12-26T01:32:05.776Z,4.58
2018-12-26T01:37:09.625Z,4.66
2018-12-26T01:42:13.384Z,4.68
2018-12-26T01:47:17.243Z,4.60
2018-12-26T01:52:21.007Z,4.64
2018-12-26T01:57:24.756Z,4.68
2018-12-26T02:02:28.521Z,4.63
2018-12-26T02:07:32.476Z,4.54
2018-12-26T02:12:36.243Z,4.62
2018-12-26T02:17:40.002Z,4.60
2018-12-26T02:22:43.750Z,4.52
2018-12-26T02:27:47.510Z,4.60
2018-12-26T02:32:51.311Z,4.58
2018-12-26T02:37:55.114Z,4.55
2018-12-26T02:42:58.921Z,4.53
2018-12-26T02:48:02.649Z,4.59
2018-12-26T02:53:06.373Z,4.54
2018-12-26T02:58:10.117Z,4.55
2018-12-26T03:03:13.991Z,4.53
2018-12-26T03:08:17.738Z,4.58
2018-12-26T03:13:21.521Z,4.58
2018-12-26T03:18:25.363Z,4.60
2018-12-26T03:23:29.234Z,4.57
2018-12-26T03:28:32.979Z,4.46
2018-12-26T03:33:36.729Z,4.52
2018-12-26T03:38:40.467Z,4.51
2018-12-26T03:43:44.310Z,4.51
2018-12-26T03:48:48.061Z,4.59
2018-12-26T03:53:51.878Z,4.50
2018-12-26T03:58:55.693Z,4.48
2018-12-26T04:03:59.555Z,4.51
2018-12-26T04:09:04.118Z,4.46
2018-12-26T04:14:07.854Z,4.45
2018-12-26T04:19:11.634Z,4.45
2018-12-26T04:24:15.537Z,4.40
2018-12-26T04:29:19.374Z,4.37
2018-12-26T04:34:23.171Z,4.33
2018-12-26T04:39:26.912Z,4.36
2018-12-26T04:44:30.692Z,4.27
2018-12-26T04:49:36.499Z,4.23
2018-12-26T04:54:40.425Z,4.22
2018-12-26T04:59:44.185Z,4.26
2018-12-26T05:04:47.948Z,4.19
2018-12-26T05:09:51.943Z,4.23
2018-12-26T05:14:55.676Z,4.20
2018-12-26T05:19:59.656Z,4.20
2018-12-26T05:25:03.480Z,4.15
2018-12-26T05:30:07.499Z,4.21
2018-12-26T05:35:11.223Z,4.17
2018-12-26T05:40:15.064Z,4.12
2018-12-26T05:45:18.797Z,4.04
2018-12-26T05:50:22.540Z,4.07
2018-12-26T05:55:26.376Z,4.09
2018-12-26T06:00:30.274Z,4.06
2018-12-26T06:06:29.263Z,4.02
2018-12-26T06:11:32.985Z,4.10
2018-12-26T06:16:36.842Z,4.06
2018-12-26T06:21:40.574Z,4.03
2018-12-26T06:26:44.344Z,4.01
2018-12-26T06:31:48.114Z,3.88
2018-12-26T06:36:51.895Z,3.89
2018-12-26T06:41:55.630Z,3.74
2018-12-26T06:46:59.525Z,3.71
2018-12-26T06:52:03.306Z,3.71
2018-12-26T06:57:07.017Z,3.72
2018-12-26T07:02:10.748Z,3.57
2018-12-26T07:07:14.486Z,3.53
2018-12-26T07:12:18.219Z,3.49
2018-12-26T07:17:22.014Z,3.55
2018-12-26T07:22:25.757Z,3.49
2018-12-26T07:27:29.668Z,3.54
2018-12-26T07:32:33.463Z,3.48
2018-12-26T07:37:37.176Z,3.42
2018-12-26T07:42:40.924Z,3.35
2018-12-26T07:47:44.701Z,3.40
2018-12-26T07:52:48.492Z,3.37
2018-12-26T07:57:52.258Z,3.32
2018-12-26T08:02:56.015Z,3.21
2018-12-26T08:07:59.763Z,3.20
2018-12-26T08:13:03.522Z,3.28
2018-12-26T08:18:07.307Z,3.19
2018-12-26T08:23:11.032Z,3.12
2018-12-26T08:28:14.777Z,3.01
2018-12-26T08:33:18.526Z,3.19
2018-12-26T08:38:22.366Z,3.18
2018-12-26T08:43:26.121Z,3.32
2018-12-26T08:48:29.970Z,3.35
2018-12-26T08:53:33.718Z,3.31
2018-12-26T08:58:37.452Z,3.19
2018-12-26T09:03:41.250Z,3.31
2018-12-26T09:08:45.008Z,3.33
2018-12-26T09:13:48.752Z,3.34
2018-12-26T09:18:52.500Z,3.39
2018-12-26T09:23:56.249Z,3.41
2018-12-26T09:29:00.128Z,3.45
2018-12-26T09:34:03.845Z,3.45
2018-12-26T09:39:08.246Z,3.62
2018-12-26T09:44:11.986Z,3.61
2018-12-26T09:49:15.720Z,3.54
2018-12-26T09:54:19.547Z,3.66
2018-12-26T09:59:23.332Z,3.66
2018-12-26T10:04:27.180Z,3.66
2018-12-26T10:09:30.955Z,3.66
2018-12-26T10:14:34.748Z,3.61
2018-12-26T10:19:41.330Z,3.72
2018-12-26T10:24:45.161Z,3.41
2018-12-26T10:29:48.934Z,3.41
2018-12-26T10:34:52.683Z,3.55
2018-12-26T10:39:56.419Z,3.58
2018-12-26T10:45:00.179Z,3.52
2018-12-26T10:50:04.969Z,3.57
2018-12-26T10:55:08.699Z,3.59
2018-12-26T11:00:13.706Z,3.65
2018-12-26T11:05:17.442Z,3.61
2018-12-26T11:10:21.170Z,3.68
2018-12-26T11:15:24.941Z,3.82
2018-12-26T11:20:28.797Z,3.79
2018-12-26T11:25:32.538Z,3.80
2018-12-26T11:30:36.279Z,3.60
2018-12-26T11:35:40.003Z,3.61
2018-12-26T11:40:43.817Z,3.53
2018-12-26T11:45:47.561Z,3.47
2018-12-26T11:50:51.294Z,3.57
2018-12-26T11:55:55.028Z,3.55
2018-12-26T12:00:58.749Z,3.57
2018-12-26T12:06:02.539Z,3.58
2018-12-26T12:11:06.351Z,3.63
2018-12-26T12:16:10.091Z,3.73
2018-12-26T12:21:13.842Z,3.71
2018-12-26T12:26:17.580Z,3.68
2018-12-26T12:31:21.328Z,3.73
2018-12-26T12:36:25.124Z,3.73
2018-12-26T12:41:28.919Z,3.81
2018-12-26T12:46:32.735Z,3.88
2018-12-26T12:51:36.559Z,3.84
2018-12-26T12:56:40.294Z,3.79
2018-12-26T13:01:44.107Z,3.81
2018-12-26T13:06:47.870Z,3.83
2018-12-26T13:11:51.659Z,3.86
2018-12-26T13:16:55.384Z,3.74
2018-12-26T13:21:59.112Z,3.82
2018-12-26T13:27:02.874Z,3.86
2018-12-26T13:32:06.616Z,3.86
2018-12-26T13:37:10.372Z,3.83
2018-12-26T13:42:14.121Z,3.84
2018-12-26T13:47:17.920Z,3.78
2018-12-26T13:52:21.634Z,3.79
2018-12-26T13:57:25.454Z,3.78
2018-12-26T14:02:30.035Z,3.87
2018-12-26T14:07:33.768Z,3.86
2018-12-26T14:12:37.509Z,3.85
2018-12-26T14:17:41.242Z,3.91
2018-12-26T14:22:45.048Z,4.02
2018-12-26T14:27:48.802Z,3.95
2018-12-26T14:32:52.650Z,4.01
2018-12-26T14:37:56.359Z,3.96
2018-12-26T14:43:00.085Z,3.98
2018-12-26T14:48:03.877Z,4.01
2018-12-26T14:53:07.935Z,4.05
2018-12-26T14:58:11.676Z,4.09
2018-12-26T15:03:15.505Z,4.01
2018-12-26T15:08:19.339Z,4.10
2018-12-26T15:13:23.148Z,4.05
2018-12-26T15:18:27.017Z,4.17
2018-12-26T15:23:30.750Z,4.17
2018-12-26T15:28:34.492Z,4.21
2018-12-26T15:33:38.264Z,4.17
2018-12-26T15:38:41.983Z,4.20
2018-12-26T15:43:45.821Z,4.27
2018-12-26T15:48:49.533Z,4.34
2018-12-26T15:53:53.390Z,4.31
2018-12-26T15:58:57.159Z,4.29
2018-12-26T16:04:00.895Z,4.36
2018-12-26T16:09:06.700Z,4.28
2018-12-26T16:14:10.445Z,4.35
2018-12-26T16:19:14.191Z,4.38
2018-12-26T16:24:17.916Z,4.39
2018-12-26T16:29:21.662Z,4.46
2018-12-26T16:34:25.474Z,4.46
2018-12-26T16:39:35.715Z,4.52
2018-12-26T16:44:34.800Z,4.44
2018-12-26T16:49:38.559Z,4.55
2018-12-26T16:54:42.447Z,4.45
2018-12-26T16:59:46.207Z,4.51
2018-12-26T17:04:49.993Z,4.59
2018-12-26T17:09:53.876Z,4.59
2018-12-26T17:14:57.638Z,4.56
2018-12-26T17:20:03.792Z,4.54
2018-12-26T17:25:07.658Z,4.49
2018-12-26T17:31:03.791Z,4.53
2018-12-26T17:41:07.399Z,4.63
2018-12-26T17:46:11.154Z,4.53
2018-12-26T17:51:18.039Z,4.55
2018-12-26T17:56:37.376Z,4.65
2018-12-26T18:01:59.073Z,4.62
2018-12-26T18:07:02.796Z,4.60
2018-12-26T18:12:11.815Z,4.62
2018-12-26T18:17:12.001Z,4.63
2018-12-26T18:22:15.892Z,4.66
2018-12-26T18:27:19.630Z,4.75
2018-12-26T18:32:23.402Z,4.65
2018-12-26T18:37:27.191Z,4.71
2018-12-26T18:42:30.951Z,4.71
2018-12-26T18:47:34.679Z,4.64
2018-12-26T18:52:38.433Z,4.74
2018-12-26T18:57:42.173Z,4.76
2018-12-26T19:02:45.939Z,4.80
2018-12-26T19:07:49.661Z,4.76
2018-12-26T19:12:53.383Z,4.73
2018-12-26T19:17:57.116Z,4.86
2018-12-26T19:23:00.841Z,4.83
2018-12-26T19:28:04.581Z,4.78
2018-12-26T19:33:08.329Z,4.91
2018-12-26T19:38:12.062Z,4.92
2018-12-26T19:43:15.804Z,4.90
2018-12-26T19:48:19.604Z,4.94
2018-12-26T19:53:23.499Z,4.94
2018-12-26T19:58:29.189Z,4.95
2018-12-26T20:03:32.707Z,4.91
2018-12-26T20:08:36.451Z,4.99
2018-12-26T20:13:40.192Z,5.00
2018-12-26T20:18:43.937Z,5.00
2018-12-26T20:23:47.681Z,4.96
2018-12-26T20:28:51.448Z,4.96
2018-12-26T20:33:55.247Z,4.94
2018-12-26T20:38:59.089Z,4.98
2018-12-26T20:44:02.808Z,5.00
2018-12-26T20:49:06.554Z,4.97
2018-12-26T20:54:10.272Z,5.11
2018-12-26T20:59:14.032Z,5.08
2018-12-26T21:04:17.812Z,5.13
2018-12-26T21:09:21.667Z,5.03
2018-12-26T21:14:25.429Z,4.99
2018-12-26T21:19:29.188Z,5.04
2018-12-26T21:24:32.906Z,4.99
2018-12-26T21:29:36.628Z,5.10
2018-12-26T21:34:40.438Z,5.10
2018-12-26T21:39:44.507Z,5.06
2018-12-26T21:44:48.246Z,4.96
2018-12-26T21:49:51.985Z,5.05
2018-12-26T21:54:55.720Z,5.08
2018-12-26T21:59:59.435Z,5.07
2018-12-26T22:05:03.176Z,5.03
2018-12-26T22:10:06.949Z,5.05
2018-12-26T22:15:10.688Z,5.12
2018-12-26T22:20:14.418Z,5.11
2018-12-26T22:25:18.145Z,5.14
2018-12-26T22:30:21.877Z,5.14
2018-12-26T22:35:25.688Z,5.17
2018-12-26T22:40:29.417Z,5.14
2018-12-26T22:45:33.163Z,5.17
2018-12-26T22:50:36.967Z,5.14
2018-12-26T22:55:40.769Z,5.21
2018-12-26T23:00:47.000Z,5.13
2018-12-26T23:05:50.761Z,5.11
2018-12-26T23:10:54.546Z,5.08
2018-12-26T23:15:58.296Z,5.18
2018-12-26T23:21:02.169Z,5.20
2018-12-26T23:26:07.176Z,5.21
2018-12-26T23:31:11.031Z,5.23
2018-12-26T23:36:14.868Z,5.19
2018-12-26T23:41:18.623Z,5.26
2018-12-26T23:46:22.361Z,5.26
2018-12-26T23:51:26.177Z,5.27
2018-12-26T23:56:29.961Z,5.32
